sensor_id;sensor_type;location;lat;lon;timestamp;P1;durP1;ratioP1;P2;durP2;ratioP2
9398;SDS011;4739;49.334;8.792;2022-09-29T00:02:12;4.80;;;3.20;;
9398;SDS011;4739;49.334;8.792;2022-09-29T00:04:37;4.33;;;3.60;;
9398;SDS011;4739;49.334;8.792;2022-09-29T00:07:03;4.63;;;3.43;;
9398;SDS011;4739;49.334;8.792;2022-09-29T00:09:28;3.77;;;2.80;;
9398;SDS011;4739;49.334;8.792;2022-09-29T00:11:55;5.57;;;3.37;;
9398;SDS011;4739;49.334;8.792;2022-09-29T00:14:21;3.83;;;3.43;;
9398;SDS011;4739;49.334;8.792;2022-09-29T00:16:47;5.10;;;3.60;;
9398;SDS011;4739;49.334;8.792;2022-09-29T00:19:13;4.50;;;3.50;;
9398;SDS011;4739;49.334;8.792;2022-09-29T00:21:38;6.70;;;3.97;;
9398;SDS011;4739;49.334;8.792;2022-09-29T00:24:04;6.73;;;3.93;;
9398;SDS011;4739;49.334;8.792;2022-09-29T00:26:30;4.17;;;3.30;;
9398;SDS011;4739;49.334;8.792;2022-09-29T00:28:56;3.60;;;3.30;;
9398;SDS011;4739;49.334;8.792;2022-09-29T00:31:26;4.97;;;3.70;;
9398;SDS011;4739;49.334;8.792;2022-09-29T00:33:53;3.73;;;3.37;;
9398;SDS011;4739;49.334;8.792;2022-09-29T00:36:20;4.20;;;3.23;;
9398;SDS011;4739;49.334;8.792;2022-09-29T00:38:46;3.80;;;3.30;;
9398;SDS011;4739;49.334;8.792;2022-09-29T00:41:17;4.20;;;3.30;;
9398;SDS011;4739;49.334;8.792;2022-09-29T00:46:23;3.97;;;3.50;;
9398;SDS011;4739;49.334;8.792;2022-09-29T00:52:16;6.43;;;3.50;;
9398;SDS011;4739;49.334;8.792;2022-09-29T00:54:54;3.83;;;3.30;;
9398;SDS011;4739;49.334;8.792;2022-09-29T00:57:35;4.30;;;3.90;;
9398;SDS011;4739;49.334;8.792;2022-09-29T01:00:05;3.80;;;3.40;;
9398;SDS011;4739;49.334;8.792;2022-09-29T01:02:34;5.00;;;4.50;;
9398;SDS011;4739;49.334;8.792;2022-09-29T01:05:04;4.70;;;3.83;;
9398;SDS011;4739;49.334;8.792;2022-09-29T01:07:33;4.23;;;3.80;;
9398;SDS011;4739;49.334;8.792;2022-09-29T01:09:58;6.20;;;3.90;;
9398;SDS011;4739;49.334;8.792;2022-09-29T01:12:24;4.50;;;4.07;;
9398;SDS011;4739;49.334;8.792;2022-09-29T01:14:51;3.93;;;3.63;;
9398;SDS011;4739;49.334;8.792;2022-09-29T01:17:18;4.70;;;3.50;;
9398;SDS011;4739;49.334;8.792;2022-09-29T01:22:27;5.47;;;4.10;;
9398;SDS011;4739;49.334;8.792;2022-09-29T01:28:37;6.00;;;4.20;;
9398;SDS011;4739;49.334;8.792;2022-09-29T01:47:07;3.90;;;3.47;;
9398;SDS011;4739;49.334;8.792;2022-09-29T01:49:38;3.93;;;3.43;;
9398;SDS011;4739;49.334;8.792;2022-09-29T01:54:43;4.60;;;3.60;;
9398;SDS011;4739;49.334;8.792;2022-09-29T01:57:25;3.93;;;3.53;;
9398;SDS011;4739;49.334;8.792;2022-09-29T02:02:52;4.03;;;3.43;;
9398;SDS011;4739;49.334;8.792;2022-09-29T02:05:46;3.90;;;3.47;;
9398;SDS011;4739;49.334;8.792;2022-09-29T02:08:16;3.30;;;2.93;;
9398;SDS011;4739;49.334;8.792;2022-09-29T02:11:09;4.17;;;3.50;;
9398;SDS011;4739;49.334;8.792;2022-09-29T02:16:28;3.63;;;3.33;;
9398;SDS011;4739;49.334;8.792;2022-09-29T02:19:03;3.83;;;3.20;;
9398;SDS011;4739;49.334;8.792;2022-09-29T02:21:32;3.53;;;3.03;;
9398;SDS011;4739;49.334;8.792;2022-09-29T02:23:58;5.60;;;4.00;;
9398;SDS011;4739;49.334;8.792;2022-09-29T02:26:24;3.90;;;3.60;;
9398;SDS011;4739;49.334;8.792;2022-09-29T02:28:54;3.70;;;3.40;;
9398;SDS011;4739;49.334;8.792;2022-09-29T02:31:20;3.43;;;3.13;;
9398;SDS011;4739;49.334;8.792;2022-09-29T02:33:45;4.27;;;3.77;;
9398;SDS011;4739;49.334;8.792;2022-09-29T02:36:16;3.83;;;3.50;;
9398;SDS011;4739;49.334;8.792;2022-09-29T02:38:52;3.70;;;3.27;;
9398;SDS011;4739;49.334;8.792;2022-09-29T02:41:39;4.10;;;3.70;;
9398;SDS011;4739;49.334;8.792;2022-09-29T02:55:17;4.07;;;3.77;;
9398;SDS011;4739;49.334;8.792;2022-09-29T02:57:58;4.20;;;3.80;;
9398;SDS011;4739;49.334;8.792;2022-09-29T03:00:29;4.13;;;3.73;;
9398;SDS011;4739;49.334;8.792;2022-09-29T03:02:55;3.80;;;3.50;;
9398;SDS011;4739;49.334;8.792;2022-09-29T03:05:21;3.90;;;3.60;;
9398;SDS011;4739;49.334;8.792;2022-09-29T03:07:47;3.80;;;3.50;;
9398;SDS011;4739;49.334;8.792;2022-09-29T03:10:14;4.27;;;3.87;;
9398;SDS011;4739;49.334;8.792;2022-09-29T03:12:41;4.30;;;3.60;;
9398;SDS011;4739;49.334;8.792;2022-09-29T03:15:07;4.23;;;3.17;;
9398;SDS011;4739;49.334;8.792;2022-09-29T03:17:35;4.07;;;3.67;;
9398;SDS011;4739;49.334;8.792;2022-09-29T03:20:01;5.83;;;3.43;;
9398;SDS011;4739;49.334;8.792;2022-09-29T03:22:27;4.10;;;3.80;;
9398;SDS011;4739;49.334;8.792;2022-09-29T03:24:53;4.13;;;3.37;;
9398;SDS011;4739;49.334;8.792;2022-09-29T03:27:19;4.90;;;3.27;;
9398;SDS011;4739;49.334;8.792;2022-09-29T03:29:44;4.97;;;4.50;;
9398;SDS011;4739;49.334;8.792;2022-09-29T03:32:10;5.10;;;4.30;;
9398;SDS011;4739;49.334;8.792;2022-09-29T03:34:36;5.57;;;4.20;;
9398;SDS011;4739;49.334;8.792;2022-09-29T03:37:01;4.80;;;4.20;;
9398;SDS011;4739;49.334;8.792;2022-09-29T03:39:27;4.57;;;4.10;;
9398;SDS011;4739;49.334;8.792;2022-09-29T03:41:53;6.13;;;4.10;;
9398;SDS011;4739;49.334;8.792;2022-09-29T03:46:50;4.93;;;3.77;;
9398;SDS011;4739;49.334;8.792;2022-09-29T03:49:16;4.40;;;4.00;;
9398;SDS011;4739;49.334;8.792;2022-09-29T03:51:42;5.70;;;3.70;;
9398;SDS011;4739;49.334;8.792;2022-09-29T03:54:08;4.43;;;4.00;;
9398;SDS011;4739;49.334;8.792;2022-09-29T03:56:34;3.73;;;3.43;;
9398;SDS011;4739;49.334;8.792;2022-09-29T03:59:00;4.20;;;3.80;;
9398;SDS011;4739;49.334;8.792;2022-09-29T04:01:27;4.87;;;4.47;;
9398;SDS011;4739;49.334;8.792;2022-09-29T04:03:53;4.13;;;3.73;;
9398;SDS011;4739;49.334;8.792;2022-09-29T04:06:18;4.63;;;4.03;;
9398;SDS011;4739;49.334;8.792;2022-09-29T04:08:44;4.90;;;4.20;;
9398;SDS011;4739;49.334;8.792;2022-09-29T04:11:10;4.20;;;3.80;;
9398;SDS011;4739;49.334;8.792;2022-09-29T04:13:35;5.17;;;3.90;;
9398;SDS011;4739;49.334;8.792;2022-09-29T04:16:03;4.63;;;4.00;;
9398;SDS011;4739;49.334;8.792;2022-09-29T04:18:29;4.30;;;3.90;;
9398;SDS011;4739;49.334;8.792;2022-09-29T04:20:55;4.10;;;3.70;;
9398;SDS011;4739;49.334;8.792;2022-09-29T04:23:24;4.93;;;4.47;;
9398;SDS011;4739;49.334;8.792;2022-09-29T04:25:51;4.93;;;4.43;;
9398;SDS011;4739;49.334;8.792;2022-09-29T04:28:16;4.73;;;4.33;;
9398;SDS011;4739;49.334;8.792;2022-09-29T04:30:42;4.70;;;3.93;;
9398;SDS011;4739;49.334;8.792;2022-09-29T04:33:07;5.87;;;3.97;;
9398;SDS011;4739;49.334;8.792;2022-09-29T04:35:34;4.60;;;4.20;;
9398;SDS011;4739;49.334;8.792;2022-09-29T04:37:59;5.33;;;4.13;;
9398;SDS011;4739;49.334;8.792;2022-09-29T04:40:25;5.30;;;4.23;;
9398;SDS011;4739;49.334;8.792;2022-09-29T04:42:50;4.23;;;3.90;;
9398;SDS011;4739;49.334;8.792;2022-09-29T04:45:16;4.90;;;4.23;;
9398;SDS011;4739;49.334;8.792;2022-09-29T04:47:42;5.77;;;4.60;;
9398;SDS011;4739;49.334;8.792;2022-09-29T04:50:07;4.73;;;4.33;;
9398;SDS011;4739;49.334;8.792;2022-09-29T04:52:33;5.93;;;4.57;;
9398;SDS011;4739;49.334;8.792;2022-09-29T04:55:00;10.00;;;4.97;;
9398;SDS011;4739;49.334;8.792;2022-09-29T04:57:26;8.87;;;4.47;;
9398;SDS011;4739;49.334;8.792;2022-09-29T04:59:51;5.33;;;3.90;;
9398;SDS011;4739;49.334;8.792;2022-09-29T05:02:17;4.27;;;3.70;;
9398;SDS011;4739;49.334;8.792;2022-09-29T05:04:43;4.43;;;3.73;;
9398;SDS011;4739;49.334;8.792;2022-09-29T05:07:11;4.13;;;3.73;;
9398;SDS011;4739;49.334;8.792;2022-09-29T05:09:37;6.53;;;4.03;;
9398;SDS011;4739;49.334;8.792;2022-09-29T05:12:03;4.00;;;3.60;;
9398;SDS011;4739;49.334;8.792;2022-09-29T05:14:28;4.80;;;4.00;;
9398;SDS011;4739;49.334;8.792;2022-09-29T05:16:54;4.50;;;3.50;;
9398;SDS011;4739;49.334;8.792;2022-09-29T05:19:20;5.40;;;4.27;;
9398;SDS011;4739;49.334;8.792;2022-09-29T05:21:46;5.97;;;4.77;;
9398;SDS011;4739;49.334;8.792;2022-09-29T05:24:11;5.73;;;4.03;;
9398;SDS011;4739;49.334;8.792;2022-09-29T05:26:37;5.70;;;4.17;;
9398;SDS011;4739;49.334;8.792;2022-09-29T05:29:03;5.83;;;4.40;;
9398;SDS011;4739;49.334;8.792;2022-09-29T05:31:29;4.30;;;3.90;;
9398;SDS011;4739;49.334;8.792;2022-09-29T05:33:54;4.73;;;4.20;;
9398;SDS011;4739;49.334;8.792;2022-09-29T05:36:20;5.13;;;4.63;;
9398;SDS011;4739;49.334;8.792;2022-09-29T05:38:47;5.03;;;4.63;;
9398;SDS011;4739;49.334;8.792;2022-09-29T05:41:13;4.87;;;4.47;;
9398;SDS011;4739;49.334;8.792;2022-09-29T05:43:48;7.63;;;5.70;;
9398;SDS011;4739;49.334;8.792;2022-09-29T05:46:15;8.53;;;6.33;;
9398;SDS011;4739;49.334;8.792;2022-09-29T05:48:41;10.83;;;8.13;;
9398;SDS011;4739;49.334;8.792;2022-09-29T05:51:11;5.33;;;4.83;;
9398;SDS011;4739;49.334;8.792;2022-09-29T05:53:38;5.10;;;4.60;;
9398;SDS011;4739;49.334;8.792;2022-09-29T05:56:12;5.70;;;4.57;;
9398;SDS011;4739;49.334;8.792;2022-09-29T05:58:43;6.43;;;4.80;;
9398;SDS011;4739;49.334;8.792;2022-09-29T06:01:12;5.70;;;4.30;;
9398;SDS011;4739;49.334;8.792;2022-09-29T06:03:40;4.97;;;4.17;;
9398;SDS011;4739;49.334;8.792;2022-09-29T06:06:06;5.67;;;4.60;;
9398;SDS011;4739;49.334;8.792;2022-09-29T06:08:33;6.97;;;4.20;;
9398;SDS011;4739;49.334;8.792;2022-09-29T06:11:06;4.93;;;4.20;;
9398;SDS011;4739;49.334;8.792;2022-09-29T06:13:36;5.87;;;4.63;;
9398;SDS011;4739;49.334;8.792;2022-09-29T06:16:02;5.17;;;4.67;;
9398;SDS011;4739;49.334;8.792;2022-09-29T06:18:28;7.50;;;4.73;;
9398;SDS011;4739;49.334;8.792;2022-09-29T06:20:59;6.20;;;4.37;;
9398;SDS011;4739;49.334;8.792;2022-09-29T06:23:28;5.67;;;4.57;;
9398;SDS011;4739;49.334;8.792;2022-09-29T06:25:55;5.83;;;4.60;;
9398;SDS011;4739;49.334;8.792;2022-09-29T06:28:21;5.90;;;4.60;;
9398;SDS011;4739;49.334;8.792;2022-09-29T06:30:47;5.80;;;4.73;;
9398;SDS011;4739;49.334;8.792;2022-09-29T06:33:12;5.20;;;4.53;;
9398;SDS011;4739;49.334;8.792;2022-09-29T06:35:38;13.47;;;6.40;;
9398;SDS011;4739;49.334;8.792;2022-09-29T06:38:22;10.93;;;6.37;;
9398;SDS011;4739;49.334;8.792;2022-09-29T06:40:47;9.17;;;6.10;;
9398;SDS011;4739;49.334;8.792;2022-09-29T06:43:13;10.50;;;5.40;;
9398;SDS011;4739;49.334;8.792;2022-09-29T06:45:38;9.40;;;5.90;;
9398;SDS011;4739;49.334;8.792;2022-09-29T06:48:04;7.80;;;5.83;;
9398;SDS011;4739;49.334;8.792;2022-09-29T06:50:30;10.93;;;5.27;;
9398;SDS011;4739;49.334;8.792;2022-09-29T06:52:55;6.97;;;5.30;;
9398;SDS011;4739;49.334;8.792;2022-09-29T06:55:21;7.20;;;5.47;;
9398;SDS011;4739;49.334;8.792;2022-09-29T06:57:46;8.97;;;5.87;;
9398;SDS011;4739;49.334;8.792;2022-09-29T07:00:12;12.43;;;7.10;;
9398;SDS011;4739;49.334;8.792;2022-09-29T07:02:37;8.10;;;6.33;;
9398;SDS011;4739;49.334;8.792;2022-09-29T07:05:03;12.03;;;6.47;;
9398;SDS011;4739;49.334;8.792;2022-09-29T07:07:29;10.87;;;6.70;;
9398;SDS011;4739;49.334;8.792;2022-09-29T07:09:54;10.37;;;6.60;;
9398;SDS011;4739;49.334;8.792;2022-09-29T07:12:20;8.30;;;6.20;;
9398;SDS011;4739;49.334;8.792;2022-09-29T07:14:46;8.77;;;5.50;;
9398;SDS011;4739;49.334;8.792;2022-09-29T07:17:11;6.43;;;5.83;;
9398;SDS011;4739;49.334;8.792;2022-09-29T07:19:37;9.70;;;5.80;;
9398;SDS011;4739;49.334;8.792;2022-09-29T07:22:03;9.00;;;5.60;;
9398;SDS011;4739;49.334;8.792;2022-09-29T07:24:29;8.13;;;5.07;;
9398;SDS011;4739;49.334;8.792;2022-09-29T07:26:55;6.57;;;5.40;;
9398;SDS011;4739;49.334;8.792;2022-09-29T07:29:21;6.90;;;5.77;;
9398;SDS011;4739;49.334;8.792;2022-09-29T07:31:46;7.93;;;5.37;;
9398;SDS011;4739;49.334;8.792;2022-09-29T07:34:15;5.77;;;5.17;;
9398;SDS011;4739;49.334;8.792;2022-09-29T07:36:41;6.77;;;5.50;;
9398;SDS011;4739;49.334;8.792;2022-09-29T07:39:06;5.87;;;5.13;;
9398;SDS011;4739;49.334;8.792;2022-09-29T07:41:32;6.10;;;5.50;;
9398;SDS011;4739;49.334;8.792;2022-09-29T07:43:58;8.33;;;5.83;;
9398;SDS011;4739;49.334;8.792;2022-09-29T07:46:23;7.53;;;5.90;;
9398;SDS011;4739;49.334;8.792;2022-09-29T07:48:49;6.20;;;5.60;;
9398;SDS011;4739;49.334;8.792;2022-09-29T07:51:16;7.57;;;6.10;;
9398;SDS011;4739;49.334;8.792;2022-09-29T07:53:43;9.80;;;6.43;;
9398;SDS011;4739;49.334;8.792;2022-09-29T07:56:17;7.00;;;6.30;;
9398;SDS011;4739;49.334;8.792;2022-09-29T07:58:44;7.27;;;6.47;;
9398;SDS011;4739;49.334;8.792;2022-09-29T08:01:12;8.20;;;6.47;;
9398;SDS011;4739;49.334;8.792;2022-09-29T08:03:40;8.47;;;7.07;;
9398;SDS011;4739;49.334;8.792;2022-09-29T08:06:08;11.03;;;6.77;;
9398;SDS011;4739;49.334;8.792;2022-09-29T08:08:35;8.63;;;6.30;;
9398;SDS011;4739;49.334;8.792;2022-09-29T08:11:04;8.67;;;7.77;;
9398;SDS011;4739;49.334;8.792;2022-09-29T08:13:32;8.57;;;6.60;;
9398;SDS011;4739;49.334;8.792;2022-09-29T08:16:00;8.10;;;6.03;;
9398;SDS011;4739;49.334;8.792;2022-09-29T08:18:27;8.57;;;5.47;;
9398;SDS011;4739;49.334;8.792;2022-09-29T08:20:53;7.47;;;5.07;;
9398;SDS011;4739;49.334;8.792;2022-09-29T08:23:20;6.87;;;5.30;;
9398;SDS011;4739;49.334;8.792;2022-09-29T08:25:47;6.33;;;5.57;;
9398;SDS011;4739;49.334;8.792;2022-09-29T08:28:13;6.13;;;5.17;;
9398;SDS011;4739;49.334;8.792;2022-09-29T08:30:38;7.37;;;4.90;;
9398;SDS011;4739;49.334;8.792;2022-09-29T08:33:04;10.53;;;5.23;;
9398;SDS011;4739;49.334;8.792;2022-09-29T08:35:36;6.73;;;5.30;;
9398;SDS011;4739;49.334;8.792;2022-09-29T08:38:02;6.77;;;4.93;;
9398;SDS011;4739;49.334;8.792;2022-09-29T08:40:28;9.90;;;5.00;;
9398;SDS011;4739;49.334;8.792;2022-09-29T08:43:14;5.73;;;4.83;;
9398;SDS011;4739;49.334;8.792;2022-09-29T08:45:58;7.03;;;5.00;;
9398;SDS011;4739;49.334;8.792;2022-09-29T08:48:45;7.30;;;5.30;;
9398;SDS011;4739;49.334;8.792;2022-09-29T08:51:14;7.07;;;5.27;;
9398;SDS011;4739;49.334;8.792;2022-09-29T08:53:45;6.53;;;4.53;;
9398;SDS011;4739;49.334;8.792;2022-09-29T08:56:16;7.03;;;4.47;;
9398;SDS011;4739;49.334;8.792;2022-09-29T08:58:42;6.07;;;4.63;;
9398;SDS011;4739;49.334;8.792;2022-09-29T09:09:14;7.43;;;5.20;;
9398;SDS011;4739;49.334;8.792;2022-09-29T09:22:24;5.00;;;4.33;;
9398;SDS011;4739;49.334;8.792;2022-09-29T09:24:58;5.80;;;4.33;;
9398;SDS011;4739;49.334;8.792;2022-09-29T09:27:27;5.97;;;4.70;;
9398;SDS011;4739;49.334;8.792;2022-09-29T09:29:59;5.03;;;4.20;;
9398;SDS011;4739;49.334;8.792;2022-09-29T09:32:27;5.30;;;4.40;;
9398;SDS011;4739;49.334;8.792;2022-09-29T09:34:57;6.13;;;4.40;;
9398;SDS011;4739;49.334;8.792;2022-09-29T09:37:27;11.43;;;6.37;;
9398;SDS011;4739;49.334;8.792;2022-09-29T09:42:32;6.93;;;4.40;;
9398;SDS011;4739;49.334;8.792;2022-09-29T09:45:00;6.50;;;4.40;;
9398;SDS011;4739;49.334;8.792;2022-09-29T09:47:28;6.27;;;4.00;;
9398;SDS011;4739;49.334;8.792;2022-09-29T09:49:59;4.83;;;4.00;;
9398;SDS011;4739;49.334;8.792;2022-09-29T09:52:28;6.00;;;4.13;;
9398;SDS011;4739;49.334;8.792;2022-09-29T09:54:57;8.67;;;4.13;;
9398;SDS011;4739;49.334;8.792;2022-09-29T10:00:12;5.07;;;3.93;;
9398;SDS011;4739;49.334;8.792;2022-09-29T10:02:49;5.07;;;4.60;;
9398;SDS011;4739;49.334;8.792;2022-09-29T10:05:20;6.77;;;3.97;;
9398;SDS011;4739;49.334;8.792;2022-09-29T10:07:48;6.37;;;3.67;;
9398;SDS011;4739;49.334;8.792;2022-09-29T10:10:16;4.23;;;3.63;;
9398;SDS011;4739;49.334;8.792;2022-09-29T10:12:42;6.77;;;3.90;;
9398;SDS011;4739;49.334;8.792;2022-09-29T10:15:27;5.63;;;4.03;;
9398;SDS011;4739;49.334;8.792;2022-09-29T10:18:04;5.20;;;3.80;;
9398;SDS011;4739;49.334;8.792;2022-09-29T10:20:35;4.23;;;3.40;;
9398;SDS011;4739;49.334;8.792;2022-09-29T10:26:03;5.73;;;4.40;;
9398;SDS011;4739;49.334;8.792;2022-09-29T10:28:37;8.73;;;4.40;;
9398;SDS011;4739;49.334;8.792;2022-09-29T10:31:13;5.20;;;3.87;;
9398;SDS011;4739;49.334;8.792;2022-09-29T10:33:45;5.43;;;3.27;;
9398;SDS011;4739;49.334;8.792;2022-09-29T10:36:11;6.53;;;3.73;;
9398;SDS011;4739;49.334;8.792;2022-09-29T10:38:37;4.77;;;3.37;;
9398;SDS011;4739;49.334;8.792;2022-09-29T10:41:04;5.33;;;4.23;;
9398;SDS011;4739;49.334;8.792;2022-09-29T10:43:34;4.57;;;3.30;;
9398;SDS011;4739;49.334;8.792;2022-09-29T10:46:01;6.43;;;3.43;;
9398;SDS011;4739;49.334;8.792;2022-09-29T10:48:27;5.40;;;3.20;;
9398;SDS011;4739;49.334;8.792;2022-09-29T10:50:55;4.53;;;2.97;;
9398;SDS011;4739;49.334;8.792;2022-09-29T10:55:52;5.47;;;3.23;;
9398;SDS011;4739;49.334;8.792;2022-09-29T10:58:30;6.87;;;3.13;;
9398;SDS011;4739;49.334;8.792;2022-09-29T11:01:03;5.43;;;3.43;;
9398;SDS011;4739;49.334;8.792;2022-09-29T11:03:31;4.67;;;2.77;;
9398;SDS011;4739;49.334;8.792;2022-09-29T11:06:00;8.67;;;3.70;;
9398;SDS011;4739;49.334;8.792;2022-09-29T11:08:26;6.07;;;3.07;;
9398;SDS011;4739;49.334;8.792;2022-09-29T11:11:01;4.77;;;3.20;;
9398;SDS011;4739;49.334;8.792;2022-09-29T11:13:33;5.17;;;2.97;;
9398;SDS011;4739;49.334;8.792;2022-09-29T11:16:03;4.60;;;3.37;;
9398;SDS011;4739;49.334;8.792;2022-09-29T11:18:34;4.17;;;2.77;;
9398;SDS011;4739;49.334;8.792;2022-09-29T11:23:32;4.40;;;3.10;;
9398;SDS011;4739;49.334;8.792;2022-09-29T11:28:35;4.77;;;2.30;;
9398;SDS011;4739;49.334;8.792;2022-09-29T11:52:16;8.30;;;3.87;;
9398;SDS011;4739;49.334;8.792;2022-09-29T12:02:30;4.83;;;2.10;;
9398;SDS011;4739;49.334;8.792;2022-09-29T12:10:24;4.23;;;1.90;;
9398;SDS011;4739;49.334;8.792;2022-09-29T12:13:05;4.67;;;2.27;;
9398;SDS011;4739;49.334;8.792;2022-09-29T12:15:43;5.27;;;1.93;;
9398;SDS011;4739;49.334;8.792;2022-09-29T12:18:13;3.53;;;1.67;;
9398;SDS011;4739;49.334;8.792;2022-09-29T12:20:41;3.17;;;1.90;;
9398;SDS011;4739;49.334;8.792;2022-09-29T12:23:09;2.03;;;1.70;;
9398;SDS011;4739;49.334;8.792;2022-09-29T12:25:37;3.77;;;2.17;;
9398;SDS011;4739;49.334;8.792;2022-09-29T12:28:13;5.10;;;2.40;;
9398;SDS011;4739;49.334;8.792;2022-09-29T12:33:27;5.03;;;1.80;;
9398;SDS011;4739;49.334;8.792;2022-09-29T12:35:59;4.67;;;2.27;;
9398;SDS011;4739;49.334;8.792;2022-09-29T12:38:33;4.27;;;2.40;;
9398;SDS011;4739;49.334;8.792;2022-09-29T12:43:59;3.17;;;1.90;;
9398;SDS011;4739;49.334;8.792;2022-09-29T12:46:33;4.93;;;2.60;;
9398;SDS011;4739;49.334;8.792;2022-09-29T12:49:08;2.73;;;1.63;;
9398;SDS011;4739;49.334;8.792;2022-09-29T12:51:40;4.50;;;2.20;;
9398;SDS011;4739;49.334;8.792;2022-09-29T12:56:41;3.50;;;1.80;;
9398;SDS011;4739;49.334;8.792;2022-09-29T13:01:43;2.67;;;1.83;;
9398;SDS011;4739;49.334;8.792;2022-09-29T13:11:54;4.13;;;1.80;;
9398;SDS011;4739;49.334;8.792;2022-09-29T13:14:29;2.70;;;2.00;;
9398;SDS011;4739;49.334;8.792;2022-09-29T13:19:37;6.70;;;2.33;;
9398;SDS011;4739;49.334;8.792;2022-09-29T13:22:18;4.40;;;1.90;;
9398;SDS011;4739;49.334;8.792;2022-09-29T13:27:26;2.93;;;2.00;;
9398;SDS011;4739;49.334;8.792;2022-09-29T13:32:20;2.87;;;1.77;;
9398;SDS011;4739;49.334;8.792;2022-09-29T13:34:51;4.67;;;1.80;;
9398;SDS011;4739;49.334;8.792;2022-09-29T13:37:18;3.83;;;1.57;;
9398;SDS011;4739;49.334;8.792;2022-09-29T13:47:57;11.10;;;8.43;;
9398;SDS011;4739;49.334;8.792;2022-09-29T13:55:49;2.43;;;1.50;;
9398;SDS011;4739;49.334;8.792;2022-09-29T13:58:22;3.80;;;1.73;;
9398;SDS011;4739;49.334;8.792;2022-09-29T14:00:48;3.80;;;2.03;;
9398;SDS011;4739;49.334;8.792;2022-09-29T14:05:51;4.97;;;1.90;;
9398;SDS011;4739;49.334;8.792;2022-09-29T14:08:19;3.67;;;1.57;;
9398;SDS011;4739;49.334;8.792;2022-09-29T14:10:49;2.63;;;1.63;;
9398;SDS011;4739;49.334;8.792;2022-09-29T14:13:21;2.37;;;1.40;;
9398;SDS011;4739;49.334;8.792;2022-09-29T14:15:51;2.77;;;1.60;;
9398;SDS011;4739;49.334;8.792;2022-09-29T14:18:31;2.47;;;1.50;;
9398;SDS011;4739;49.334;8.792;2022-09-29T14:21:00;2.57;;;1.40;;
9398;SDS011;4739;49.334;8.792;2022-09-29T14:28:57;3.97;;;1.90;;
9398;SDS011;4739;49.334;8.792;2022-09-29T14:31:24;3.40;;;1.60;;
9398;SDS011;4739;49.334;8.792;2022-09-29T14:33:52;3.03;;;1.70;;
9398;SDS011;4739;49.334;8.792;2022-09-29T14:36:19;3.80;;;1.87;;
9398;SDS011;4739;49.334;8.792;2022-09-29T14:38:46;2.83;;;1.80;;
9398;SDS011;4739;49.334;8.792;2022-09-29T14:41:21;2.27;;;1.60;;
9398;SDS011;4739;49.334;8.792;2022-09-29T14:44:01;5.60;;;2.17;;
9398;SDS011;4739;49.334;8.792;2022-09-29T14:57:32;3.17;;;1.53;;
9398;SDS011;4739;49.334;8.792;2022-09-29T15:00:04;2.90;;;1.83;;
9398;SDS011;4739;49.334;8.792;2022-09-29T15:02:31;3.23;;;2.13;;
9398;SDS011;4739;49.334;8.792;2022-09-29T15:05:10;3.90;;;1.73;;
9398;SDS011;4739;49.334;8.792;2022-09-29T15:07:38;5.90;;;1.67;;
9398;SDS011;4739;49.334;8.792;2022-09-29T15:10:05;3.83;;;2.00;;
9398;SDS011;4739;49.334;8.792;2022-09-29T15:12:44;3.00;;;1.77;;
9398;SDS011;4739;49.334;8.792;2022-09-29T15:15:29;3.77;;;1.50;;
9398;SDS011;4739;49.334;8.792;2022-09-29T15:17:59;4.70;;;1.63;;
9398;SDS011;4739;49.334;8.792;2022-09-29T15:20:42;2.53;;;1.70;;
9398;SDS011;4739;49.334;8.792;2022-09-29T15:25:47;3.43;;;1.40;;
9398;SDS011;4739;49.334;8.792;2022-09-29T15:28:20;2.07;;;1.20;;
9398;SDS011;4739;49.334;8.792;2022-09-29T15:30:49;3.37;;;1.43;;
9398;SDS011;4739;49.334;8.792;2022-09-29T15:33:25;3.30;;;1.80;;
9398;SDS011;4739;49.334;8.792;2022-09-29T15:35:58;4.47;;;1.70;;
9398;SDS011;4739;49.334;8.792;2022-09-29T15:38:25;3.63;;;1.93;;
9398;SDS011;4739;49.334;8.792;2022-09-29T15:40:59;4.27;;;1.70;;
9398;SDS011;4739;49.334;8.792;2022-09-29T15:43:27;4.13;;;1.67;;
9398;SDS011;4739;49.334;8.792;2022-09-29T15:45:58;3.53;;;1.80;;
9398;SDS011;4739;49.334;8.792;2022-09-29T15:48:25;5.07;;;1.73;;
9398;SDS011;4739;49.334;8.792;2022-09-29T15:50:51;3.37;;;1.90;;
9398;SDS011;4739;49.334;8.792;2022-09-29T15:53:22;3.33;;;1.70;;
9398;SDS011;4739;49.334;8.792;2022-09-29T15:55:48;5.20;;;1.50;;
9398;SDS011;4739;49.334;8.792;2022-09-29T16:00:55;4.30;;;2.03;;
9398;SDS011;4739;49.334;8.792;2022-09-29T16:03:23;3.70;;;1.77;;
9398;SDS011;4739;49.334;8.792;2022-09-29T16:06:33;4.60;;;2.80;;
9398;SDS011;4739;49.334;8.792;2022-09-29T16:08:44;2.73;;;1.70;;
9398;SDS011;4739;49.334;8.792;2022-09-29T16:11:16;3.17;;;1.53;;
9398;SDS011;4739;49.334;8.792;2022-09-29T16:13:45;5.57;;;2.60;;
9398;SDS011;4739;49.334;8.792;2022-09-29T16:16:13;3.67;;;1.93;;
9398;SDS011;4739;49.334;8.792;2022-09-29T16:21:06;3.20;;;2.07;;
9398;SDS011;4739;49.334;8.792;2022-09-29T16:23:39;3.83;;;1.40;;
9398;SDS011;4739;49.334;8.792;2022-09-29T16:28:33;3.57;;;1.60;;
9398;SDS011;4739;49.334;8.792;2022-09-29T16:31:20;3.17;;;1.63;;
9398;SDS011;4739;49.334;8.792;2022-09-29T16:33:51;4.73;;;1.90;;
9398;SDS011;4739;49.334;8.792;2022-09-29T16:36:30;3.57;;;1.90;;
9398;SDS011;4739;49.334;8.792;2022-09-29T16:38:57;3.30;;;1.70;;
9398;SDS011;4739;49.334;8.792;2022-09-29T16:41:33;3.77;;;1.60;;
9398;SDS011;4739;49.334;8.792;2022-09-29T16:44:02;2.90;;;1.47;;
9398;SDS011;4739;49.334;8.792;2022-09-29T16:46:53;7.63;;;2.20;;
9398;SDS011;4739;49.334;8.792;2022-09-29T16:51:46;3.37;;;1.60;;
9398;SDS011;4739;49.334;8.792;2022-09-29T16:54:26;3.47;;;1.97;;
9398;SDS011;4739;49.334;8.792;2022-09-29T16:57:09;4.37;;;1.80;;
9398;SDS011;4739;49.334;8.792;2022-09-29T16:59:41;5.20;;;1.60;;
9398;SDS011;4739;49.334;8.792;2022-09-29T17:02:10;4.33;;;1.53;;
9398;SDS011;4739;49.334;8.792;2022-09-29T17:04:36;6.07;;;1.77;;
9398;SDS011;4739;49.334;8.792;2022-09-29T17:07:02;3.83;;;2.20;;
9398;SDS011;4739;49.334;8.792;2022-09-29T17:09:28;6.07;;;1.97;;
9398;SDS011;4739;49.334;8.792;2022-09-29T17:11:54;3.90;;;1.60;;
9398;SDS011;4739;49.334;8.792;2022-09-29T17:14:20;5.00;;;1.70;;
9398;SDS011;4739;49.334;8.792;2022-09-29T17:16:47;4.77;;;1.73;;
9398;SDS011;4739;49.334;8.792;2022-09-29T17:19:15;4.50;;;2.00;;
9398;SDS011;4739;49.334;8.792;2022-09-29T17:21:41;6.83;;;2.20;;
9398;SDS011;4739;49.334;8.792;2022-09-29T17:24:07;4.93;;;2.33;;
9398;SDS011;4739;49.334;8.792;2022-09-29T17:26:43;5.23;;;2.10;;
9398;SDS011;4739;49.334;8.792;2022-09-29T17:29:29;9.97;;;2.20;;
9398;SDS011;4739;49.334;8.792;2022-09-29T17:31:55;3.77;;;2.03;;
9398;SDS011;4739;49.334;8.792;2022-09-29T17:34:21;5.63;;;2.50;;
9398;SDS011;4739;49.334;8.792;2022-09-29T17:36:53;6.93;;;2.80;;
9398;SDS011;4739;49.334;8.792;2022-09-29T17:39:19;5.27;;;2.07;;
9398;SDS011;4739;49.334;8.792;2022-09-29T17:41:46;5.30;;;2.43;;
9398;SDS011;4739;49.334;8.792;2022-09-29T17:44:13;4.50;;;2.27;;
9398;SDS011;4739;49.334;8.792;2022-09-29T17:46:39;6.23;;;2.57;;
9398;SDS011;4739;49.334;8.792;2022-09-29T17:49:08;5.93;;;2.50;;
9398;SDS011;4739;49.334;8.792;2022-09-29T17:51:35;5.60;;;2.30;;
9398;SDS011;4739;49.334;8.792;2022-09-29T17:54:01;4.00;;;2.30;;
9398;SDS011;4739;49.334;8.792;2022-09-29T17:56:28;5.07;;;2.63;;
9398;SDS011;4739;49.334;8.792;2022-09-29T17:59:01;3.20;;;2.53;;
9398;SDS011;4739;49.334;8.792;2022-09-29T18:01:29;5.73;;;2.63;;
9398;SDS011;4739;49.334;8.792;2022-09-29T18:03:57;6.40;;;2.90;;
9398;SDS011;4739;49.334;8.792;2022-09-29T18:06:23;5.27;;;2.70;;
9398;SDS011;4739;49.334;8.792;2022-09-29T18:08:53;6.67;;;2.53;;
9398;SDS011;4739;49.334;8.792;2022-09-29T18:11:21;4.87;;;2.67;;
9398;SDS011;4739;49.334;8.792;2022-09-29T18:13:47;4.43;;;2.70;;
9398;SDS011;4739;49.334;8.792;2022-09-29T18:16:15;8.47;;;2.93;;
9398;SDS011;4739;49.334;8.792;2022-09-29T18:18:41;7.07;;;3.10;;
9398;SDS011;4739;49.334;8.792;2022-09-29T18:21:07;5.63;;;3.37;;
9398;SDS011;4739;49.334;8.792;2022-09-29T18:23:34;6.60;;;3.00;;
9398;SDS011;4739;49.334;8.792;2022-09-29T18:26:01;8.47;;;3.40;;
9398;SDS011;4739;49.334;8.792;2022-09-29T18:28:27;3.63;;;3.27;;
9398;SDS011;4739;49.334;8.792;2022-09-29T18:30:55;3.93;;;3.00;;
9398;SDS011;4739;49.334;8.792;2022-09-29T18:33:22;7.93;;;3.03;;
9398;SDS011;4739;49.334;8.792;2022-09-29T18:35:52;5.97;;;3.17;;
9398;SDS011;4739;49.334;8.792;2022-09-29T18:38:18;6.63;;;3.30;;